This is the latest recevied weather packets stored in our database for station/object CA4LJZ-10. If no packets are shown the sender has not sent any weather packets the latest 10 day(s).
| Time | Temp. | Humidity | Pressure | Rain* | Wind** | Luminosity | Snow |
|---|---|---|---|---|---|---|---|
| 1788561630 | 23.33° C | 21% | 957.5 hPa | - | - | - | - |
| 1788560729 | 23.89° C | 20% | 957.4 hPa | - | - | - | - |
| 1788559828 | 25° C | 19% | 957.4 hPa | - | - | - | - |
| 1788554423 | 28.89° C | 16% | 956.9 hPa | - | - | - | - |
| 1788553522 | 29.44° C | 15% | 956.8 hPa | - | - | - | - |
| 1788552621 | 28.89° C | 15% | 956.8 hPa | - | - | - | - |
| 1788551720 | 28.89° C | 15% | 956.7 hPa | - | - | - | - |
| 1788549918 | 29.44° C | 16% | 956.6 hPa | - | - | - | - |
| 1788549017 | 29.44° C | 16% | 956.5 hPa | - | - | - | - |
| 1788547215 | 31.11° C | 18% | 956.5 hPa | - | - | - | - |
| 1788544535 | 33.33° C | 19% | 956.9 hPa | - | - | - | - |
| 1788540030 | 31.11° C | 23% | 957.9 hPa | - | - | - | - |
| 1788539129 | 30° C | 23% | 958 hPa | - | - | - | - |
| 1788538228 | 28.89° C | 24% | 958.2 hPa | - | - | - | - |
| 1788537327 | 28.89° C | 24% | 958.4 hPa | - | - | - | - |
| 1788535525 | 28.89° C | 24% | 958.9 hPa | - | - | - | - |
| 1788534624 | 26.67° C | 27% | 958.9 hPa | - | - | - | - |
| 1788531922 | 23.89° C | 33% | 959.1 hPa | - | - | - | - |
| 1788531021 | 22.22° C | 34% | 959.3 hPa | - | - | - | - |
| 1788529217 | 19.44° C | 40% | 959.4 hPa | - | - | - | - |
| 1788528316 | 17.78° C | 43% | 959.4 hPa | - | - | - | - |
| 1788527415 | 16.11° C | 47% | 959.4 hPa | - | - | - | - |
| 1788526514 | 15° C | 49% | 959.6 hPa | - | - | - | - |
| 1788524712 | 17.22° C | 45% | 959.4 hPa | - | - | - | - |
| 1788523834 | 15° C | 46% | 959.5 hPa | - | - | - | - |
* Rain since midnight (hover to see other rain measurements)
** Current wind speed in m/s (hover to see current wind gust speed)